»·PEaware :: WAT118 KLAS-KSLC

WAT118 :: KLAS-KSLC

FLIGHT INFORMATION

Flight Status: Arrived
Operator: Unknown
More flights by this operator :: More flights under this callsign
Pilot: Oshane D. (17945)
Aircraft: BOEING 737-800
(B738)
More flights by this aircraft type
Origin: KLAS McCarran Intl
United States
Destination: KSLC Salt Lake City Intl
United States
More flights between these airports :: More routes between these airports
Route: +STAAV8 MLF QWENN5
File this flight plan on PilotEdge
Remarks: RMK / SIMBRIEF
Altitude:
(Current/Filed)
31,000ft
Speed:
(Current/Filed)
440kts
Departed: 22-May-20 06:19 PM
Arrived: 22-May-20 07:27 PM
Distance/Time
Traveled:
319nm/1:08
Distance/Time
To Go:
Arrived

Flight Plot

Page will automatically refresh every two minutes.


Map Options




Map Legend


Flown Route
Filed Route
Departure Airport
Arrival Airport
Navaid (VOR, NDB)
Fix

Horizontal Profiles

Position Reports

Time Latitude Longitude Heading Altitude Ground
Speed
22-May-20 17:52 36.080234 -115.136075 47 2192ft 0kts
22-May-20 17:53 36.080234 -115.136075 47 2192ft 0kts
22-May-20 17:54 36.080234 -115.136075 47 2192ft 0kts
22-May-20 17:55 36.080234 -115.136075 47 2192ft 0kts
22-May-20 17:56 36.080234 -115.136075 47 2192ft 0kts
22-May-20 17:57 36.080234 -115.136075 47 2192ft 0kts
22-May-20 17:58 36.080234 -115.136075 47 2192ft 0kts
22-May-20 17:59 36.080234 -115.136075 47 2192ft 0kts
22-May-20 18:00 36.080234 -115.136075 47 2192ft 0kts
22-May-20 18:01 36.080234 -115.136075 47 2192ft 0kts
22-May-20 18:02 36.080234 -115.136075 47 2192ft 0kts
22-May-20 18:03 36.080234 -115.136075 47 2192ft 0kts
22-May-20 18:04 36.080234 -115.136075 47 2192ft 0kts
22-May-20 18:05 36.080234 -115.136075 47 2192ft 0kts
22-May-20 18:06 36.080234 -115.136075 47 2192ft 0kts
22-May-20 18:07 36.080234 -115.136075 47 2192ft 0kts
22-May-20 18:08 36.080182 -115.136146 47 2192ft 2kts
22-May-20 18:09 36.079780 -115.136703 71 2192ft 2kts
22-May-20 18:10 36.079881 -115.137110 136 2192ft 0kts
22-May-20 18:11 36.079880 -115.137109 136 2192ft 0kts
22-May-20 18:12 36.079880 -115.137109 136 2192ft 0kts
22-May-20 18:13 36.079850 -115.137073 136 2192ft 2kts
22-May-20 18:14 36.078267 -115.133529 90 2192ft 15kts
22-May-20 18:15 36.078268 -115.129328 90 2192ft 11kts
22-May-20 18:16 36.078325 -115.125014 91 2192ft 14kts
22-May-20 18:17 36.077092 -115.121281 173 2192ft 8kts
22-May-20 18:18 36.076615 -115.146064 269 2321ft 160kts
22-May-20 18:19 36.076375 -115.208212 265 4061ft 221kts
22-May-20 18:20 36.092311 -115.281726 315 7170ft 255kts
22-May-20 18:21 36.160358 -115.281252 45 10105ft 295kts
22-May-20 18:22 36.194132 -115.175153 86 11270ft 371kts
22-May-20 18:23 36.197748 -115.041408 91 13598ft 395kts
22-May-20 18:25 36.216536 -114.791517 60 18077ft 424kts
22-May-20 18:26 36.299730 -114.688331 34 19465ft 427kts
22-May-20 18:27 36.395141 -114.596842 33 21584ft 441kts
22-May-20 18:28 36.494126 -114.502979 33 23558ft 454kts
22-May-20 18:29 36.599611 -114.413510 27 25276ft 466kts
22-May-20 18:30 36.699435 -114.335777 27 26716ft 478kts
22-May-20 18:31 36.813684 -114.247073 27 28066ft 490kts
22-May-20 18:32 36.930094 -114.156460 26 29442ft 499kts
22-May-20 18:33 37.047692 -114.064597 26 30741ft 501kts
22-May-20 18:34 37.166560 -113.971442 26 30790ft 505kts
22-May-20 18:35 37.286966 -113.876738 26 30841ft 518kts
22-May-20 18:36 37.409071 -113.780265 26 30846ft 518kts
22-May-20 18:37 37.531501 -113.683186 26 30848ft 520kts
22-May-20 18:38 37.653579 -113.586003 26 30850ft 520kts
22-May-20 18:39 37.775739 -113.488375 26 30851ft 520kts
22-May-20 18:40 37.897760 -113.390469 26 30833ft 519kts
22-May-20 18:41 38.019844 -113.292216 27 30813ft 520kts
22-May-20 18:42 38.141105 -113.194230 28 30812ft 523kts
22-May-20 18:43 38.263281 -113.095032 28 30813ft 521kts
22-May-20 18:44 38.387725 -113.001790 19 30807ft 514kts
22-May-20 18:45 38.518588 -112.929701 17 30810ft 513kts
22-May-20 18:46 38.650295 -112.858848 17 30820ft 513kts
22-May-20 18:47 38.781967 -112.788133 17 30829ft 515kts
22-May-20 18:48 38.906784 -112.720728 17 30831ft 516kts
22-May-20 18:49 39.036088 -112.650564 18 28677ft 498kts
22-May-20 18:50 39.161108 -112.582689 19 26423ft 489kts
22-May-20 18:51 39.284728 -112.515336 20 24147ft 475kts
22-May-20 18:52 39.401252 -112.449009 21 23172ft 442kts
22-May-20 18:53 39.512005 -112.385226 21 22038ft 437kts
22-May-20 18:54 39.624400 -112.320503 22 21045ft 441kts
22-May-20 18:55 39.735744 -112.255994 22 19761ft 440kts
22-May-20 18:56 39.846328 -112.191796 22 17528ft 436kts
22-May-20 18:57 39.955054 -112.128463 22 15240ft 415kts
22-May-20 18:58 40.057244 -112.067047 23 14902ft 405kts
22-May-20 18:59 40.156897 -112.006718 23 13164ft 388kts
22-May-20 19:00 40.253226 -111.948320 23 11044ft 377kts
22-May-20 19:01 40.351064 -111.932102 1 10903ft 325kts
22-May-20 19:02 40.439000 -111.934782 349 10955ft 316kts
22-May-20 19:03 40.527484 -111.944930 351 10432ft 320kts
22-May-20 19:04 40.615039 -111.954629 352 9082ft 296kts
22-May-20 19:05 40.698636 -111.961849 347 6944ft 287kts
22-May-20 19:06 40.768167 -111.971282 355 6250ft 171kts
22-May-20 19:07 40.818196 -111.966710 1 7352ft 196kts
22-May-20 19:08 40.874873 -111.978892 344 8017ft 215kts
22-May-20 19:09 40.933538 -111.993494 348 8064ft 213kts
22-May-20 19:10 40.983360 -112.026255 301 7973ft 192kts
22-May-20 19:11 40.988951 -112.095675 247 8035ft 194kts
22-May-20 19:12 40.948368 -112.138238 183 7978ft 198kts
22-May-20 19:13 40.890499 -112.131354 176 7973ft 225kts
22-May-20 19:14 40.828876 -112.122655 176 7973ft 222kts
22-May-20 19:15 40.767568 -112.113687 176 7680ft 225kts
22-May-20 19:16 40.698489 -112.104050 175 7405ft 264kts
22-May-20 19:18 40.625164 -112.081681 168 8410ft 274kts
22-May-20 19:19 40.561789 -112.058722 168 9010ft 209kts
22-May-20 19:20 40.505280 -112.035855 153 8988ft 214kts
22-May-20 19:21 40.496676 -111.953190 79 8922ft 249kts
22-May-20 19:22 40.555287 -111.929190 333 9032ft 229kts
22-May-20 19:23 40.620369 -111.948622 345 8604ft 214kts
22-May-20 19:24 40.676813 -111.959595 348 7572ft 197kts
22-May-20 19:25 40.727583 -111.967324 347 5812ft 177kts
22-May-20 19:26 40.769793 -111.972554 353 4351ft 127kts
22-May-20 19:27 40.787920 -111.975982 324 4238ft 0kts

Navigation Log

Ident Type
Flight plan parsing failed, navigation log unavailable